sensor_id;sensor_type;location;lat;lon;timestamp;pressure;altitude;pressure_sealevel;temperature;humidity
69796;BME280;57073;45.650;9.612;2023-03-03T00:02:40;99307.25;;;6.09;59.69
69796;BME280;57073;45.650;9.612;2023-03-03T00:07:43;99297.34;;;6.16;60.15
69796;BME280;57073;45.650;9.612;2023-03-03T00:12:48;99300.84;;;6.17;59.78
69796;BME280;57073;45.650;9.612;2023-03-03T00:17:49;99303.56;;;6.10;60.09
69796;BME280;57073;45.650;9.612;2023-03-03T00:22:49;99302.94;;;6.01;60.61
69796;BME280;57073;45.650;9.612;2023-03-03T00:27:50;99299.41;;;6.08;59.80
69796;BME280;57073;45.650;9.612;2023-03-03T00:32:51;99292.81;;;6.24;59.63
69796;BME280;57073;45.650;9.612;2023-03-03T00:37:57;99299.63;;;6.19;60.03
69796;BME280;57073;45.650;9.612;2023-03-03T00:42:59;99298.78;;;6.32;59.45
69796;BME280;57073;45.650;9.612;2023-03-03T00:48:15;99291.56;;;6.26;59.61
69796;BME280;57073;45.650;9.612;2023-03-03T00:53:20;99287.22;;;6.38;59.47
69796;BME280;57073;45.650;9.612;2023-03-03T00:58:22;99288.28;;;6.37;59.19
69796;BME280;57073;45.650;9.612;2023-03-03T01:03:24;99283.34;;;6.08;59.46
69796;BME280;57073;45.650;9.612;2023-03-03T01:08:24;99278.63;;;5.96;59.69
69796;BME280;57073;45.650;9.612;2023-03-03T01:13:28;99281.31;;;5.96;60.17
69796;BME280;57073;45.650;9.612;2023-03-03T01:18:29;99273.69;;;6.00;60.29
69796;BME280;57073;45.650;9.612;2023-03-03T01:23:30;99274.09;;;6.04;59.67
69796;BME280;57073;45.650;9.612;2023-03-03T01:28:32;99263.41;;;5.90;59.68
69796;BME280;57073;45.650;9.612;2023-03-03T01:33:33;99259.09;;;5.89;59.18
69796;BME280;57073;45.650;9.612;2023-03-03T01:38:35;99252.72;;;5.63;60.61
69796;BME280;57073;45.650;9.612;2023-03-03T01:43:42;99249.19;;;5.50;61.02
69796;BME280;57073;45.650;9.612;2023-03-03T01:48:44;99244.69;;;5.43;60.89
69796;BME280;57073;45.650;9.612;2023-03-03T01:53:47;99224.66;;;5.26;61.14
69796;BME280;57073;45.650;9.612;2023-03-03T01:58:52;99231.88;;;5.39;60.70
69796;BME280;57073;45.650;9.612;2023-03-03T02:03:58;99220.81;;;5.49;60.78
69796;BME280;57073;45.650;9.612;2023-03-03T02:14:11;99211.34;;;5.66;60.21
69796;BME280;57073;45.650;9.612;2023-03-03T02:20:00;99206.00;;;5.73;60.17
69796;BME280;57073;45.650;9.612;2023-03-03T02:24:50;99200.25;;;5.56;60.01
69796;BME280;57073;45.650;9.612;2023-03-03T02:29:52;99193.22;;;5.48;61.22
69796;BME280;57073;45.650;9.612;2023-03-03T02:34:52;99189.53;;;5.69;60.35
69796;BME280;57073;45.650;9.612;2023-03-03T02:39:53;99186.66;;;5.57;60.19
69796;BME280;57073;45.650;9.612;2023-03-03T02:44:53;99190.34;;;5.50;60.69
69796;BME280;57073;45.650;9.612;2023-03-03T02:49:53;99189.75;;;5.48;60.88
69796;BME280;57073;45.650;9.612;2023-03-03T02:54:54;99189.53;;;5.49;60.32
69796;BME280;57073;45.650;9.612;2023-03-03T02:59:54;99184.78;;;5.44;60.59
69796;BME280;57073;45.650;9.612;2023-03-03T03:04:54;99170.56;;;5.37;60.46
69796;BME280;57073;45.650;9.612;2023-03-03T03:09:55;99174.28;;;5.36;60.74
69796;BME280;57073;45.650;9.612;2023-03-03T03:14:55;99171.22;;;5.39;60.61
69796;BME280;57073;45.650;9.612;2023-03-03T03:19:55;99170.56;;;5.37;60.50
69796;BME280;57073;45.650;9.612;2023-03-03T03:24:56;99163.19;;;5.33;60.82
69796;BME280;57073;45.650;9.612;2023-03-03T03:29:56;99164.00;;;5.13;61.45
69796;BME280;57073;45.650;9.612;2023-03-03T03:34:57;99160.69;;;5.24;60.80
69796;BME280;57073;45.650;9.612;2023-03-03T03:39:57;99169.34;;;5.26;60.38
69796;BME280;57073;45.650;9.612;2023-03-03T03:44:57;99160.47;;;5.19;60.71
69796;BME280;57073;45.650;9.612;2023-03-03T03:49:58;99161.72;;;5.10;60.65
69796;BME280;57073;45.650;9.612;2023-03-03T03:54:58;99160.31;;;5.14;60.77
69796;BME280;57073;45.650;9.612;2023-03-03T03:59:58;99160.47;;;5.19;60.99
69796;BME280;57073;45.650;9.612;2023-03-03T04:04:59;99154.75;;;5.16;60.16
69796;BME280;57073;45.650;9.612;2023-03-03T04:09:59;99146.75;;;5.16;60.07
69796;BME280;57073;45.650;9.612;2023-03-03T04:15:00;99147.34;;;4.98;60.64
69796;BME280;57073;45.650;9.612;2023-03-03T04:20:00;99148.34;;;4.97;60.47
69796;BME280;57073;45.650;9.612;2023-03-03T04:25:02;99146.72;;;5.09;60.92
69796;BME280;57073;45.650;9.612;2023-03-03T04:30:05;99128.63;;;5.11;60.53
69796;BME280;57073;45.650;9.612;2023-03-03T04:35:06;99135.00;;;5.03;60.25
69796;BME280;57073;45.650;9.612;2023-03-03T04:40:07;99139.72;;;5.01;60.55
69796;BME280;57073;45.650;9.612;2023-03-03T04:45:08;99132.31;;;5.10;59.95
69796;BME280;57073;45.650;9.612;2023-03-03T04:50:10;99120.81;;;5.23;59.39
69796;BME280;57073;45.650;9.612;2023-03-03T04:55:10;99133.16;;;5.11;59.71
69796;BME280;57073;45.650;9.612;2023-03-03T05:00:12;99127.41;;;5.07;60.08
69796;BME280;57073;45.650;9.612;2023-03-03T05:05:12;99125.34;;;5.16;59.24
69796;BME280;57073;45.650;9.612;2023-03-03T05:10:13;99126.59;;;5.20;59.60
69796;BME280;57073;45.650;9.612;2023-03-03T05:15:13;99131.69;;;5.08;59.24
69796;BME280;57073;45.650;9.612;2023-03-03T05:20:13;99121.84;;;4.89;60.47
69796;BME280;57073;45.650;9.612;2023-03-03T05:25:14;99125.31;;;4.96;59.21
69796;BME280;57073;45.650;9.612;2023-03-03T05:30:14;99124.06;;;4.78;61.32
69796;BME280;57073;45.650;9.612;2023-03-03T05:35:15;99131.88;;;4.73;60.62
69796;BME280;57073;45.650;9.612;2023-03-03T05:40:15;99134.38;;;4.81;60.25
69796;BME280;57073;45.650;9.612;2023-03-03T05:45:15;99137.03;;;4.81;60.51
69796;BME280;57073;45.650;9.612;2023-03-03T05:50:20;99133.09;;;4.64;60.86
69796;BME280;57073;45.650;9.612;2023-03-03T05:55:21;99138.44;;;4.77;60.12
69796;BME280;57073;45.650;9.612;2023-03-03T06:00:22;99149.34;;;4.69;61.02
69796;BME280;57073;45.650;9.612;2023-03-03T06:05:22;99151.78;;;4.64;61.55
69796;BME280;57073;45.650;9.612;2023-03-03T06:10:22;99150.78;;;4.78;60.77
69796;BME280;57073;45.650;9.612;2023-03-03T06:15:23;99144.84;;;4.76;60.12
69796;BME280;57073;45.650;9.612;2023-03-03T06:20:23;99148.91;;;4.72;60.47
69796;BME280;57073;45.650;9.612;2023-03-03T06:25:24;99156.06;;;4.52;61.43
69796;BME280;57073;45.650;9.612;2023-03-03T06:30:24;99153.59;;;4.50;61.68
69796;BME280;57073;45.650;9.612;2023-03-03T06:35:26;99157.75;;;4.79;60.24
69796;BME280;57073;45.650;9.612;2023-03-03T06:40:26;99164.38;;;4.97;60.44
69796;BME280;57073;45.650;9.612;2023-03-03T06:45:26;99172.00;;;5.00;59.61
69796;BME280;57073;45.650;9.612;2023-03-03T06:50:27;99175.09;;;5.10;59.57
69796;BME280;57073;45.650;9.612;2023-03-03T06:55:27;99176.75;;;5.38;59.51
69796;BME280;57073;45.650;9.612;2023-03-03T07:00:27;99178.84;;;5.49;58.75
69796;BME280;57073;45.650;9.612;2023-03-03T07:05:28;99170.38;;;5.59;58.67
69796;BME280;57073;45.650;9.612;2023-03-03T07:10:29;99186.25;;;5.74;58.17
69796;BME280;57073;45.650;9.612;2023-03-03T07:15:34;99193.19;;;5.95;57.56
69796;BME280;57073;45.650;9.612;2023-03-03T07:20:38;99190.31;;;5.96;57.82
69796;BME280;57073;45.650;9.612;2023-03-03T07:25:38;99190.88;;;6.12;57.67
69796;BME280;57073;45.650;9.612;2023-03-03T07:30:39;99187.72;;;6.35;57.73
69796;BME280;57073;45.650;9.612;2023-03-03T07:35:41;99190.75;;;6.52;57.49
69796;BME280;57073;45.650;9.612;2023-03-03T07:40:53;99192.66;;;6.83;56.36
69796;BME280;57073;45.650;9.612;2023-03-03T07:46:24;99190.47;;;7.05;55.98
69796;BME280;57073;45.650;9.612;2023-03-03T07:51:28;99191.59;;;7.23;55.98
69796;BME280;57073;45.650;9.612;2023-03-03T07:56:34;99187.88;;;7.55;55.36
69796;BME280;57073;45.650;9.612;2023-03-03T08:01:40;99186.88;;;7.75;54.67
69796;BME280;57073;45.650;9.612;2023-03-03T08:06:50;99193.72;;;7.89;54.69
69796;BME280;57073;45.650;9.612;2023-03-03T08:11:58;99197.81;;;8.17;53.80
69796;BME280;57073;45.650;9.612;2023-03-03T08:17:01;99202.94;;;8.37;53.68
69796;BME280;57073;45.650;9.612;2023-03-03T08:22:18;99196.50;;;8.75;53.30
69796;BME280;57073;45.650;9.612;2023-03-03T08:27:21;99199.66;;;9.02;52.52
69796;BME280;57073;45.650;9.612;2023-03-03T08:32:21;99199.88;;;9.43;52.03
69796;BME280;57073;45.650;9.612;2023-03-03T08:37:21;99209.97;;;9.83;51.07
69796;BME280;57073;45.650;9.612;2023-03-03T08:42:22;99203.66;;;9.89;50.14
69796;BME280;57073;45.650;9.612;2023-03-03T08:47:22;99210.44;;;10.15;49.69
69796;BME280;57073;45.650;9.612;2023-03-03T08:52:22;99210.66;;;10.26;49.68
69796;BME280;57073;45.650;9.612;2023-03-03T08:57:23;99206.69;;;10.16;50.48
69796;BME280;57073;45.650;9.612;2023-03-03T09:02:23;99214.91;;;9.86;51.03
69796;BME280;57073;45.650;9.612;2023-03-03T09:07:23;99216.97;;;10.43;51.71
69796;BME280;57073;45.650;9.612;2023-03-03T09:12:38;99219.13;;;10.06;50.39
69796;BME280;57073;45.650;9.612;2023-03-03T09:17:39;99221.22;;;10.27;50.03
69796;BME280;57073;45.650;9.612;2023-03-03T09:22:40;99226.94;;;10.54;50.17
69796;BME280;57073;45.650;9.612;2023-03-03T09:27:40;99230.69;;;10.53;51.15
69796;BME280;57073;45.650;9.612;2023-03-03T09:32:41;99224.53;;;10.70;51.60
69796;BME280;57073;45.650;9.612;2023-03-03T09:37:42;99224.72;;;10.51;51.30
69796;BME280;57073;45.650;9.612;2023-03-03T09:42:48;99222.94;;;10.45;50.25
69796;BME280;57073;45.650;9.612;2023-03-03T10:09:39;99224.63;;;10.34;50.92
69796;BME280;57073;45.650;9.612;2023-03-03T10:20:16;99234.81;;;10.32;51.99
69796;BME280;57073;45.650;9.612;2023-03-03T10:25:41;99243.34;;;9.70;52.39
69796;BME280;57073;45.650;9.612;2023-03-03T10:37:19;99227.66;;;9.79;51.51
69796;BME280;57073;45.650;9.612;2023-03-03T10:47:27;99221.69;;;10.36;51.24
69796;BME280;57073;45.650;9.612;2023-03-03T10:52:31;99232.94;;;9.85;51.21
69796;BME280;57073;45.650;9.612;2023-03-03T10:58:01;99221.44;;;10.26;50.66
69796;BME280;57073;45.650;9.612;2023-03-03T11:03:56;99227.78;;;9.96;51.41
69796;BME280;57073;45.650;9.612;2023-03-03T11:08:55;99227.06;;;10.12;52.07
69796;BME280;57073;45.650;9.612;2023-03-03T11:29:56;99211.97;;;9.99;50.59
69796;BME280;57073;45.650;9.612;2023-03-03T11:35:26;99200.84;;;9.96;49.08
69796;BME280;57073;45.650;9.612;2023-03-03T11:40:48;99202.59;;;10.14;50.51
69796;BME280;57073;45.650;9.612;2023-03-03T11:45:54;99208.47;;;10.34;50.26
69796;BME280;57073;45.650;9.612;2023-03-03T11:51:06;99195.94;;;10.16;51.69
69796;BME280;57073;45.650;9.612;2023-03-03T12:01:45;99186.56;;;10.31;50.61
69796;BME280;57073;45.650;9.612;2023-03-03T12:11:54;99180.09;;;10.44;49.42
69796;BME280;57073;45.650;9.612;2023-03-03T12:17:00;99180.81;;;10.68;49.30
69796;BME280;57073;45.650;9.612;2023-03-03T12:27:40;99182.16;;;10.53;47.77
69796;BME280;57073;45.650;9.612;2023-03-03T12:32:48;99165.69;;;10.67;49.73
69796;BME280;57073;45.650;9.612;2023-03-03T12:48:42;99151.38;;;10.95;48.62
69796;BME280;57073;45.650;9.612;2023-03-03T13:04:40;99145.13;;;10.77;47.86
69796;BME280;57073;45.650;9.612;2023-03-03T13:15:52;99147.75;;;11.18;47.71
69796;BME280;57073;45.650;9.612;2023-03-03T13:25:49;99148.88;;;11.39;47.59
69796;BME280;57073;45.650;9.612;2023-03-03T13:30:55;99150.09;;;11.48;47.13
69796;BME280;57073;45.650;9.612;2023-03-03T13:36:03;99135.78;;;11.14;46.47
69796;BME280;57073;45.650;9.612;2023-03-03T13:41:09;99144.09;;;10.95;46.13
69796;BME280;57073;45.650;9.612;2023-03-03T13:46:36;99143.06;;;10.96;45.90
69796;BME280;57073;45.650;9.612;2023-03-03T13:52:18;99137.47;;;10.86;47.17
69796;BME280;57073;45.650;9.612;2023-03-03T14:07:41;99141.81;;;11.21;46.92
69796;BME280;57073;45.650;9.612;2023-03-03T14:18:29;99135.06;;;11.52;47.19
69796;BME280;57073;45.650;9.612;2023-03-03T14:28:47;99136.34;;;11.50;45.38
69796;BME280;57073;45.650;9.612;2023-03-03T14:34:31;99130.22;;;11.37;43.72
69796;BME280;57073;45.650;9.612;2023-03-03T14:39:38;99126.38;;;11.33;45.32
69796;BME280;57073;45.650;9.612;2023-03-03T14:49:45;99120.88;;;11.28;45.18
69796;BME280;57073;45.650;9.612;2023-03-03T14:54:54;99120.09;;;11.11;45.99
69796;BME280;57073;45.650;9.612;2023-03-03T15:05:29;99119.59;;;11.14;46.67
69796;BME280;57073;45.650;9.612;2023-03-03T15:10:34;99123.69;;;11.50;46.61
69796;BME280;57073;45.650;9.612;2023-03-03T15:16:32;99119.81;;;11.46;47.02
69796;BME280;57073;45.650;9.612;2023-03-03T15:21:09;99132.03;;;11.32;47.13
69796;BME280;57073;45.650;9.612;2023-03-03T15:26:22;99124.75;;;11.15;46.79
69796;BME280;57073;45.650;9.612;2023-03-03T15:37:32;99114.78;;;10.70;45.94
69796;BME280;57073;45.650;9.612;2023-03-03T15:42:51;99122.94;;;11.04;46.37
69796;BME280;57073;45.650;9.612;2023-03-03T16:04:13;99127.84;;;11.24;46.36
69796;BME280;57073;45.650;9.612;2023-03-03T16:09:23;99128.00;;;11.00;45.44
69796;BME280;57073;45.650;9.612;2023-03-03T16:25:06;99133.28;;;10.78;44.28
69796;BME280;57073;45.650;9.612;2023-03-03T16:35:40;99142.81;;;10.69;44.96
69796;BME280;57073;45.650;9.612;2023-03-03T16:40:46;99147.34;;;10.80;45.83
69796;BME280;57073;45.650;9.612;2023-03-03T16:45:57;99147.91;;;10.54;45.99
69796;BME280;57073;45.650;9.612;2023-03-03T16:51:20;99154.97;;;10.55;45.73
69796;BME280;57073;45.650;9.612;2023-03-03T16:56:27;99167.63;;;10.54;46.33
69796;BME280;57073;45.650;9.612;2023-03-03T17:06:54;99166.34;;;10.45;46.61
69796;BME280;57073;45.650;9.612;2023-03-03T17:17:12;99180.59;;;10.57;47.29
69796;BME280;57073;45.650;9.612;2023-03-03T17:22:23;99182.38;;;10.52;47.37
69796;BME280;57073;45.650;9.612;2023-03-03T17:33:06;99196.34;;;10.49;47.04
69796;BME280;57073;45.650;9.612;2023-03-03T18:20:42;99244.63;;;10.27;48.64
69796;BME280;57073;45.650;9.612;2023-03-03T18:25:58;99253.69;;;10.32;47.60
69796;BME280;57073;45.650;9.612;2023-03-03T18:30:59;99261.28;;;10.23;49.07
69796;BME280;57073;45.650;9.612;2023-03-03T18:36:14;99263.66;;;10.32;48.56
69796;BME280;57073;45.650;9.612;2023-03-03T18:42:54;99270.19;;;10.36;47.63
69796;BME280;57073;45.650;9.612;2023-03-03T18:53:23;99288.03;;;10.37;47.96
69796;BME280;57073;45.650;9.612;2023-03-03T18:58:36;99282.16;;;10.16;47.71
69796;BME280;57073;45.650;9.612;2023-03-03T19:09:20;99274.75;;;10.00;47.79
69796;BME280;57073;45.650;9.612;2023-03-03T19:14:43;99283.03;;;9.87;48.64
69796;BME280;57073;45.650;9.612;2023-03-03T19:20:12;99285.16;;;9.73;49.54
69796;BME280;57073;45.650;9.612;2023-03-03T19:25:24;99284.72;;;9.45;50.56
69796;BME280;57073;45.650;9.612;2023-03-03T19:30:34;99289.03;;;9.35;51.42
69796;BME280;57073;45.650;9.612;2023-03-03T19:56:53;99317.16;;;8.83;52.99
69796;BME280;57073;45.650;9.612;2023-03-03T20:02:21;99317.84;;;8.79;53.21
69796;BME280;57073;45.650;9.612;2023-03-03T20:28:33;99361.72;;;8.54;54.06
69796;BME280;57073;45.650;9.612;2023-03-03T20:44:27;99372.47;;;8.54;54.59
69796;BME280;57073;45.650;9.612;2023-03-03T20:49:48;99375.06;;;8.42;54.49
69796;BME280;57073;45.650;9.612;2023-03-03T20:55:06;99378.41;;;8.38;54.92
69796;BME280;57073;45.650;9.612;2023-03-03T21:05:23;99383.91;;;8.24;55.30
69796;BME280;57073;45.650;9.612;2023-03-03T21:10:26;99390.22;;;8.11;56.05
69796;BME280;57073;45.650;9.612;2023-03-03T21:15:32;99392.56;;;8.26;55.73
69796;BME280;57073;45.650;9.612;2023-03-03T21:20:34;99389.22;;;8.06;56.11
69796;BME280;57073;45.650;9.612;2023-03-03T21:25:48;99393.81;;;7.99;56.61
69796;BME280;57073;45.650;9.612;2023-03-03T21:30:58;99394.81;;;8.04;56.34
69796;BME280;57073;45.650;9.612;2023-03-03T21:35:59;99399.00;;;7.93;57.15
69796;BME280;57073;45.650;9.612;2023-03-03T21:41:01;99408.44;;;8.03;55.75
69796;BME280;57073;45.650;9.612;2023-03-03T21:46:01;99401.91;;;7.92;55.80
69796;BME280;57073;45.650;9.612;2023-03-03T21:51:02;99400.22;;;7.98;55.81
69796;BME280;57073;45.650;9.612;2023-03-03T21:56:03;99402.66;;;8.06;55.29
69796;BME280;57073;45.650;9.612;2023-03-03T22:01:06;99399.09;;;8.12;54.80
69796;BME280;57073;45.650;9.612;2023-03-03T22:06:06;99407.09;;;8.19;54.74
69796;BME280;57073;45.650;9.612;2023-03-03T22:11:07;99407.91;;;8.19;54.36
69796;BME280;57073;45.650;9.612;2023-03-03T22:16:07;99417.00;;;8.18;54.67
69796;BME280;57073;45.650;9.612;2023-03-03T22:21:08;99404.56;;;8.24;54.45
69796;BME280;57073;45.650;9.612;2023-03-03T22:26:08;99410.19;;;8.22;54.26
69796;BME280;57073;45.650;9.612;2023-03-03T22:31:08;99423.34;;;7.99;56.37
69796;BME280;57073;45.650;9.612;2023-03-03T22:36:09;99408.66;;;8.01;56.53
69796;BME280;57073;45.650;9.612;2023-03-03T22:41:09;99417.34;;;7.97;57.89
69796;BME280;57073;45.650;9.612;2023-03-03T22:46:11;99415.53;;;7.90;58.41
69796;BME280;57073;45.650;9.612;2023-03-03T22:51:11;99416.69;;;8.08;58.42
69796;BME280;57073;45.650;9.612;2023-03-03T22:56:12;99416.28;;;8.04;58.67
69796;BME280;57073;45.650;9.612;2023-03-03T23:01:12;99418.13;;;8.04;58.30
69796;BME280;57073;45.650;9.612;2023-03-03T23:06:12;99410.47;;;8.07;58.77
69796;BME280;57073;45.650;9.612;2023-03-03T23:11:13;99420.66;;;7.99;59.76
69796;BME280;57073;45.650;9.612;2023-03-03T23:16:13;99409.59;;;7.82;60.59
69796;BME280;57073;45.650;9.612;2023-03-03T23:21:13;99416.25;;;7.79;62.04
69796;BME280;57073;45.650;9.612;2023-03-03T23:26:14;99422.03;;;7.76;61.70
69796;BME280;57073;45.650;9.612;2023-03-03T23:31:14;99427.88;;;7.66;61.32
69796;BME280;57073;45.650;9.612;2023-03-03T23:36:14;99423.81;;;7.89;58.82
69796;BME280;57073;45.650;9.612;2023-03-03T23:41:15;99424.69;;;7.83;59.55
69796;BME280;57073;45.650;9.612;2023-03-03T23:46:15;99420.13;;;7.83;59.64
69796;BME280;57073;45.650;9.612;2023-03-03T23:51:15;99420.09;;;7.90;58.95
69796;BME280;57073;45.650;9.612;2023-03-03T23:56:16;99424.63;;;7.89;58.46
